El Paso International Airport
KELP : now visible

Airfield :











YOU CAN JOIN US ON...

 
LOGIN :

Register | Disclaimer

   EN    FR    IT 

 









Legend :    VFR   Marginal VFR   IFR   Intensive IFR   Very Intensive IFR
Visi :
Ceiling :
>= 8 km
>= 3000ft
5 to 8 km
1000 to 3000 ft
1500m to 5 km
500 to 1000 ft
800 to 1500m
200 to 500 ft
< 800m
< 200 ft
Symbols :   Thunderstorms  Fog  Heavy snow  Heavy precipitations  Wind > 20 kt







- Airport Elevation : 3959 ft
- IATA code : ELP


KELP - El Paso International

CURRENT METAR :
  • 191551Z VRB03KT 10SM FEW250 18/M01 A3024 RMK AO2 SLP186 T01831006

EXPIRED METARs :
  • 191451Z 00000KT 10SM FEW250 17/00 A3023 RMK AO2 SLP183 T01670000 51026
  • 191351Z 09005KT 10SM FEW200 14/00 A3022 RMK AO2 SLP180 T01390000

TAF KELP
Valid from the 19 at 12:00 until the 20 at 12:00 UTC


191151Z 1912/2012 09009KT P6SM SKC
FM191900 15006KT P6SM SKC
FM200600 08005KT P6SM FEW250
KZAB FIR / North America



MET'MAP, your aeronautical weather chart ! - Copyright ORBIFLY December 2007 - Disclaimer

ORBIFLY MET'MAP TEAM :

Programming & Development : Alexandra Zaïnal
Concept & Development : Baudouin d'Aumeries
Co-Development & Prog : Marc-Olivier Méhu
Technical & hardware support : Manuel Goepfert

Contact : metmap@orbifly.com




SOURCES & CREDITS :

   NOAA       Earth
Advisory